
<gpx xmlns="http://www.topografix.com/GPX/1/1" xmlns:gpxx="http://www.garmin.com/xmlschemas/GpxExtensions/v3" xmlns:xsi="http://www.w3.org/2001/XMLSchema-instance" version="1.1" creator="Adze - https://getadze.com/" xsi:schemaLocation="http://www.topografix.com/GPX/1/1 http://www.topografix.com/GPX/1/1/gpx.xsd http://www.garmin.com/xmlschemas/GpxExtensions/v3 http://www.garmin.com/xmlschemas/GpxExtensionsv3.xsd">
    <metadata>
        <name>Untitled Document</name>
        <link href="http://www.garmin.com"></link>
        <time>2018-02-27T06:08:23.879Z</time>
    </metadata>
    <wpt lon="101.087952" lat="13.168718">
        <name>Firefly Chalet</name>
        <sym>Lodging</sym>
        <extensions>
            <gpxx:WaypointExtension xmlns:gpxx="http://www.garmin.com/xmlschemas/GpxExtensions/v3">
                <gpxx:DisplayMode>SymbolAndName</gpxx:DisplayMode>
            </gpxx:WaypointExtension>
        </extensions>
    </wpt>
    <wpt lon="101.112541" lat="13.120834">
        <ele>142.000000</ele>
        <name>Sat Water1</name>
        <cmt>28-JUL-12 14:21:09</cmt>
        <desc>28-JUL-12 14:21:09</desc>
        <sym>Drinking Water</sym>
        <extensions>
            <gpxx:WaypointExtension xmlns:gpxx="http://www.garmin.com/xmlschemas/GpxExtensions/v3">
                <gpxx:DisplayMode>SymbolAndName</gpxx:DisplayMode>
            </gpxx:WaypointExtension>
        </extensions>
    </wpt>
    <trk>
        <name>Sat</name>
        <extensions>
            <gpxx:TrackExtension xmlns:gpxx="http://www.garmin.com/xmlschemas/GpxExtensions/v3">
                <gpxx:DisplayColor>Red</gpxx:DisplayColor>
            </gpxx:TrackExtension>
        </extensions>
        <trkseg>
            <trkpt lon="101.086639" lat="13.166950">
                <ele>153.470000</ele>
                <time>2012-07-28T05:56:41Z</time>
            </trkpt>
            <trkpt lon="101.086454" lat="13.166954">
                <ele>156.350000</ele>
                <time>2012-07-28T05:58:06Z</time>
            </trkpt>
            <trkpt lon="101.086716" lat="13.167960">
                <ele>143.370000</ele>
                <time>2012-07-28T05:58:25Z</time>
            </trkpt>
            <trkpt lon="101.087018" lat="13.168028">
                <ele>143.370000</ele>
                <time>2012-07-28T05:58:33Z</time>
            </trkpt>
            <trkpt lon="101.087155" lat="13.167922">
                <ele>144.340000</ele>
                <time>2012-07-28T05:58:38Z</time>
            </trkpt>
            <trkpt lon="101.087359" lat="13.168071">
                <ele>143.370000</ele>
                <time>2012-07-28T05:58:44Z</time>
            </trkpt>
            <trkpt lon="101.087607" lat="13.168685">
                <ele>145.780000</ele>
                <time>2012-07-28T05:59:00Z</time>
            </trkpt>
            <trkpt lon="101.087856" lat="13.168732">
                <ele>146.740000</ele>
                <time>2012-07-28T05:59:08Z</time>
            </trkpt>
            <trkpt lon="101.088030" lat="13.168760">
                <ele>146.260000</ele>
                <time>2012-07-28T05:59:13Z</time>
            </trkpt>
            <trkpt lon="101.088913" lat="13.168323">
                <ele>147.700000</ele>
                <time>2012-07-28T05:59:31Z</time>
            </trkpt>
            <trkpt lon="101.089189" lat="13.168035">
                <ele>149.620000</ele>
                <time>2012-07-28T05:59:42Z</time>
            </trkpt>
            <trkpt lon="101.089586" lat="13.166408">
                <ele>150.100000</ele>
                <time>2012-07-28T06:00:10Z</time>
            </trkpt>
            <trkpt lon="101.090044" lat="13.166199">
                <ele>156.350000</ele>
                <time>2012-07-28T06:00:35Z</time>
            </trkpt>
            <trkpt lon="101.090737" lat="13.166425">
                <ele>159.240000</ele>
                <time>2012-07-28T06:01:03Z</time>
            </trkpt>
            <trkpt lon="101.091435" lat="13.166781">
                <ele>162.120000</ele>
                <time>2012-07-28T06:01:29Z</time>
            </trkpt>
            <trkpt lon="101.091623" lat="13.167070">
                <ele>164.040000</ele>
                <time>2012-07-28T06:01:41Z</time>
            </trkpt>
            <trkpt lon="101.092797" lat="13.169260">
                <ele>165.480000</ele>
                <time>2012-07-28T06:02:30Z</time>
            </trkpt>
            <trkpt lon="101.092967" lat="13.169206">
                <ele>166.930000</ele>
                <time>2012-07-28T06:02:40Z</time>
            </trkpt>
            <trkpt lon="101.093375" lat="13.168669">
                <ele>174.620000</ele>
                <time>2012-07-28T06:03:27Z</time>
            </trkpt>
            <trkpt lon="101.093760" lat="13.168269">
                <ele>179.900000</ele>
                <time>2012-07-28T06:03:57Z</time>
            </trkpt>
            <trkpt lon="101.094903" lat="13.167083">
                <ele>176.540000</ele>
                <time>2012-07-28T06:04:45Z</time>
            </trkpt>
            <trkpt lon="101.094652" lat="13.166481">
                <ele>180.380000</ele>
                <time>2012-07-28T06:05:17Z</time>
            </trkpt>
            <trkpt lon="101.094893" lat="13.165977">
                <ele>193.360000</ele>
                <time>2012-07-28T06:06:37Z</time>
            </trkpt>
            <trkpt lon="101.095370" lat="13.165527">
                <ele>197.210000</ele>
                <time>2012-07-28T06:07:13Z</time>
            </trkpt>
            <trkpt lon="101.095719" lat="13.164747">
                <ele>204.900000</ele>
                <time>2012-07-28T06:08:08Z</time>
            </trkpt>
            <trkpt lon="101.096072" lat="13.164641">
                <ele>209.220000</ele>
                <time>2012-07-28T06:08:34Z</time>
            </trkpt>
            <trkpt lon="101.096355" lat="13.164655">
                <ele>209.700000</ele>
                <time>2012-07-28T06:08:56Z</time>
            </trkpt>
            <trkpt lon="101.096886" lat="13.164880">
                <ele>221.720000</ele>
                <time>2012-07-28T06:10:11Z</time>
            </trkpt>
            <trkpt lon="101.096991" lat="13.164930">
                <ele>222.200000</ele>
                <time>2012-07-28T06:10:43Z</time>
            </trkpt>
            <trkpt lon="101.096386" lat="13.164646">
                <ele>210.190000</ele>
                <time>2012-07-28T06:12:16Z</time>
            </trkpt>
            <trkpt lon="101.095989" lat="13.164648">
                <ele>208.260000</ele>
                <time>2012-07-28T06:13:18Z</time>
            </trkpt>
            <trkpt lon="101.095773" lat="13.164666">
                <ele>204.900000</ele>
                <time>2012-07-28T06:14:13Z</time>
            </trkpt>
            <trkpt lon="101.095504" lat="13.164226">
                <ele>212.590000</ele>
                <time>2012-07-28T06:15:50Z</time>
            </trkpt>
            <trkpt lon="101.095586" lat="13.163968">
                <ele>213.550000</ele>
                <time>2012-07-28T06:16:04Z</time>
            </trkpt>
            <trkpt lon="101.096558" lat="13.163443">
                <ele>213.550000</ele>
                <time>2012-07-28T06:16:41Z</time>
            </trkpt>
            <trkpt lon="101.097907" lat="13.163185">
                <ele>207.780000</ele>
                <time>2012-07-28T06:17:35Z</time>
            </trkpt>
            <trkpt lon="101.098153" lat="13.163021">
                <ele>208.260000</ele>
                <time>2012-07-28T06:18:13Z</time>
            </trkpt>
            <trkpt lon="101.098209" lat="13.161926">
                <ele>205.860000</ele>
                <time>2012-07-28T06:18:36Z</time>
            </trkpt>
            <trkpt lon="101.099109" lat="13.161840">
                <ele>202.490000</ele>
                <time>2012-07-28T06:18:52Z</time>
            </trkpt>
            <trkpt lon="101.100504" lat="13.161429">
                <ele>202.980000</ele>
                <time>2012-07-28T06:19:11Z</time>
            </trkpt>
            <trkpt lon="101.100554" lat="13.161416">
                <ele>202.490000</ele>
                <time>2012-07-28T06:19:12Z</time>
            </trkpt>
            <trkpt lon="101.100750" lat="13.161574">
                <ele>204.420000</ele>
                <time>2012-07-28T06:19:18Z</time>
            </trkpt>
            <trkpt lon="101.101826" lat="13.163693">
                <ele>211.630000</ele>
                <time>2012-07-28T06:20:23Z</time>
            </trkpt>
            <trkpt lon="101.103306" lat="13.164633">
                <ele>219.800000</ele>
                <time>2012-07-28T06:21:23Z</time>
            </trkpt>
            <trkpt lon="101.103882" lat="13.165064">
                <ele>221.720000</ele>
                <time>2012-07-28T06:21:49Z</time>
            </trkpt>
            <trkpt lon="101.104302" lat="13.165622">
                <ele>224.610000</ele>
                <time>2012-07-28T06:22:14Z</time>
            </trkpt>
            <trkpt lon="101.104579" lat="13.165988">
                <ele>226.050000</ele>
                <time>2012-07-28T06:22:27Z</time>
            </trkpt>
            <trkpt lon="101.105041" lat="13.166222">
                <ele>226.530000</ele>
                <time>2012-07-28T06:22:42Z</time>
            </trkpt>
            <trkpt lon="101.105488" lat="13.166192">
                <ele>227.970000</ele>
                <time>2012-07-28T06:22:55Z</time>
            </trkpt>
            <trkpt lon="101.105594" lat="13.166131">
                <ele>227.970000</ele>
                <time>2012-07-28T06:22:58Z</time>
            </trkpt>
            <trkpt lon="101.105850" lat="13.165831">
                <ele>227.010000</ele>
                <time>2012-07-28T06:23:08Z</time>
            </trkpt>
            <trkpt lon="101.105812" lat="13.165310">
                <ele>224.610000</ele>
                <time>2012-07-28T06:23:21Z</time>
            </trkpt>
            <trkpt lon="101.104393" lat="13.159965">
                <ele>211.150000</ele>
                <time>2012-07-28T06:24:42Z</time>
            </trkpt>
            <trkpt lon="101.103665" lat="13.158986">
                <ele>205.860000</ele>
                <time>2012-07-28T06:24:58Z</time>
            </trkpt>
            <trkpt lon="101.103098" lat="13.158701">
                <ele>203.460000</ele>
                <time>2012-07-28T06:25:06Z</time>
            </trkpt>
            <trkpt lon="101.102917" lat="13.158531">
                <ele>201.530000</ele>
                <time>2012-07-28T06:25:09Z</time>
            </trkpt>
            <trkpt lon="101.101741" lat="13.156346">
                <ele>199.610000</ele>
                <time>2012-07-28T06:25:45Z</time>
            </trkpt>
            <trkpt lon="101.102697" lat="13.155560">
                <ele>205.380000</ele>
                <time>2012-07-28T06:26:19Z</time>
            </trkpt>
            <trkpt lon="101.103100" lat="13.155274">
                <ele>205.380000</ele>
                <time>2012-07-28T06:26:32Z</time>
            </trkpt>
            <trkpt lon="101.105884" lat="13.153470">
                <ele>207.300000</ele>
                <time>2012-07-28T06:27:27Z</time>
            </trkpt>
            <trkpt lon="101.106727" lat="13.152863">
                <ele>205.860000</ele>
                <time>2012-07-28T06:27:44Z</time>
            </trkpt>
            <trkpt lon="101.107303" lat="13.152420">
                <ele>202.010000</ele>
                <time>2012-07-28T06:27:53Z</time>
            </trkpt>
            <trkpt lon="101.107858" lat="13.152040">
                <ele>199.610000</ele>
                <time>2012-07-28T06:28:00Z</time>
            </trkpt>
            <trkpt lon="101.109062" lat="13.151515">
                <ele>194.800000</ele>
                <time>2012-07-28T06:28:15Z</time>
            </trkpt>
            <trkpt lon="101.108664" lat="13.150842">
                <ele>197.690000</ele>
                <time>2012-07-28T06:28:38Z</time>
            </trkpt>
            <trkpt lon="101.108422" lat="13.150745">
                <ele>199.610000</ele>
                <time>2012-07-28T06:28:51Z</time>
            </trkpt>
            <trkpt lon="101.107657" lat="13.150856">
                <ele>208.740000</ele>
                <time>2012-07-28T06:29:43Z</time>
            </trkpt>
            <trkpt lon="101.107579" lat="13.150901">
                <ele>209.700000</ele>
                <time>2012-07-28T06:29:49Z</time>
            </trkpt>
            <trkpt lon="101.107244" lat="13.151028">
                <ele>212.590000</ele>
                <time>2012-07-28T06:30:16Z</time>
            </trkpt>
            <trkpt lon="101.106782" lat="13.150826">
                <ele>223.160000</ele>
                <time>2012-07-28T06:30:53Z</time>
            </trkpt>
            <trkpt lon="101.106773" lat="13.150812">
                <ele>222.680000</ele>
                <time>2012-07-28T06:30:54Z</time>
            </trkpt>
            <trkpt lon="101.107009" lat="13.150184">
                <ele>226.050000</ele>
                <time>2012-07-28T06:31:27Z</time>
            </trkpt>
            <trkpt lon="101.107335" lat="13.149888">
                <ele>231.810000</ele>
                <time>2012-07-28T06:31:58Z</time>
            </trkpt>
            <trkpt lon="101.107429" lat="13.149738">
                <ele>230.370000</ele>
                <time>2012-07-28T06:32:04Z</time>
            </trkpt>
            <trkpt lon="101.107844" lat="13.149583">
                <ele>236.140000</ele>
                <time>2012-07-28T06:34:54Z</time>
            </trkpt>
            <trkpt lon="101.107898" lat="13.149350">
                <ele>238.060000</ele>
                <time>2012-07-28T06:35:07Z</time>
            </trkpt>
            <trkpt lon="101.107912" lat="13.149067">
                <ele>232.780000</ele>
                <time>2012-07-28T06:35:48Z</time>
            </trkpt>
            <trkpt lon="101.108183" lat="13.148833">
                <ele>228.930000</ele>
                <time>2012-07-28T06:35:57Z</time>
            </trkpt>
            <trkpt lon="101.108267" lat="13.148526">
                <ele>225.570000</ele>
                <time>2012-07-28T06:36:06Z</time>
            </trkpt>
            <trkpt lon="101.108403" lat="13.148232">
                <ele>217.400000</ele>
                <time>2012-07-28T06:36:22Z</time>
            </trkpt>
            <trkpt lon="101.109002" lat="13.148138">
                <ele>209.700000</ele>
                <time>2012-07-28T06:36:47Z</time>
            </trkpt>
            <trkpt lon="101.109381" lat="13.149206">
                <ele>197.210000</ele>
                <time>2012-07-28T06:37:55Z</time>
            </trkpt>
            <trkpt lon="101.110949" lat="13.149833">
                <ele>190.000000</ele>
                <time>2012-07-28T06:38:27Z</time>
            </trkpt>
            <trkpt lon="101.111040" lat="13.149556">
                <ele>188.560000</ele>
                <time>2012-07-28T06:38:42Z</time>
            </trkpt>
            <trkpt lon="101.110749" lat="13.150292">
                <ele>190.960000</ele>
                <time>2012-07-28T06:39:16Z</time>
            </trkpt>
            <trkpt lon="101.111061" lat="13.149428">
                <ele>189.520000</ele>
                <time>2012-07-28T06:42:36Z</time>
            </trkpt>
            <trkpt lon="101.111291" lat="13.148266">
                <ele>187.590000</ele>
                <time>2012-07-28T06:42:58Z</time>
            </trkpt>
            <trkpt lon="101.110623" lat="13.147748">
                <ele>188.560000</ele>
                <time>2012-07-28T06:43:16Z</time>
            </trkpt>
            <trkpt lon="101.110435" lat="13.147175">
                <ele>190.960000</ele>
                <time>2012-07-28T06:43:36Z</time>
            </trkpt>
            <trkpt lon="101.110213" lat="13.146734">
                <ele>191.920000</ele>
                <time>2012-07-28T06:43:52Z</time>
            </trkpt>
            <trkpt lon="101.109957" lat="13.146292">
                <ele>190.960000</ele>
                <time>2012-07-28T06:44:06Z</time>
            </trkpt>
            <trkpt lon="101.109664" lat="13.144015">
                <ele>184.230000</ele>
                <time>2012-07-28T06:45:37Z</time>
            </trkpt>
            <trkpt lon="101.110028" lat="13.143917">
                <ele>183.750000</ele>
                <time>2012-07-28T06:45:55Z</time>
            </trkpt>
            <trkpt lon="101.109973" lat="13.143826">
                <ele>182.790000</ele>
                <time>2012-07-28T06:45:59Z</time>
            </trkpt>
            <trkpt lon="101.109261" lat="13.143286">
                <ele>180.380000</ele>
                <time>2012-07-28T06:46:24Z</time>
            </trkpt>
            <trkpt lon="101.108824" lat="13.142621">
                <ele>183.270000</ele>
                <time>2012-07-28T06:46:59Z</time>
            </trkpt>
            <trkpt lon="101.108274" lat="13.142251">
                <ele>187.590000</ele>
                <time>2012-07-28T06:47:29Z</time>
            </trkpt>
            <trkpt lon="101.108034" lat="13.142096">
                <ele>187.110000</ele>
                <time>2012-07-28T06:47:41Z</time>
            </trkpt>
            <trkpt lon="101.107844" lat="13.142166">
                <ele>187.590000</ele>
                <time>2012-07-28T06:47:51Z</time>
            </trkpt>
            <trkpt lon="101.107769" lat="13.141846">
                <ele>188.560000</ele>
                <time>2012-07-28T06:48:11Z</time>
            </trkpt>
            <trkpt lon="101.107195" lat="13.141869">
                <ele>189.040000</ele>
                <time>2012-07-28T06:48:37Z</time>
            </trkpt>
            <trkpt lon="101.107224" lat="13.142294">
                <ele>189.040000</ele>
                <time>2012-07-28T06:49:21Z</time>
            </trkpt>
            <trkpt lon="101.107019" lat="13.142086">
                <ele>190.480000</ele>
                <time>2012-07-28T06:49:54Z</time>
            </trkpt>
            <trkpt lon="101.106918" lat="13.141872">
                <ele>190.480000</ele>
                <time>2012-07-28T06:50:15Z</time>
            </trkpt>
            <trkpt lon="101.107102" lat="13.142364">
                <ele>191.920000</ele>
                <time>2012-07-28T06:51:10Z</time>
            </trkpt>
            <trkpt lon="101.107079" lat="13.142221">
                <ele>190.000000</ele>
                <time>2012-07-28T06:51:52Z</time>
            </trkpt>
            <trkpt lon="101.107466" lat="13.142486">
                <ele>190.000000</ele>
                <time>2012-07-28T06:52:25Z</time>
            </trkpt>
            <trkpt lon="101.107133" lat="13.142681">
                <ele>190.960000</ele>
                <time>2012-07-28T06:53:11Z</time>
            </trkpt>
            <trkpt lon="101.106946" lat="13.142650">
                <ele>191.920000</ele>
                <time>2012-07-28T06:53:59Z</time>
            </trkpt>
            <trkpt lon="101.106746" lat="13.142071">
                <ele>194.320000</ele>
                <time>2012-07-28T06:54:41Z</time>
            </trkpt>
            <trkpt lon="101.106546" lat="13.141760">
                <ele>194.800000</ele>
                <time>2012-07-28T06:55:04Z</time>
            </trkpt>
            <trkpt lon="101.106996" lat="13.141350">
                <ele>193.840000</ele>
                <time>2012-07-28T06:55:38Z</time>
            </trkpt>
            <trkpt lon="101.106627" lat="13.139541">
                <ele>191.440000</ele>
                <time>2012-07-28T06:56:43Z</time>
            </trkpt>
            <trkpt lon="101.106145" lat="13.138894">
                <ele>190.960000</ele>
                <time>2012-07-28T06:57:07Z</time>
            </trkpt>
            <trkpt lon="101.106125" lat="13.138520">
                <ele>191.440000</ele>
                <time>2012-07-28T06:57:19Z</time>
            </trkpt>
            <trkpt lon="101.106819" lat="13.138222">
                <ele>194.320000</ele>
                <time>2012-07-28T06:57:45Z</time>
            </trkpt>
            <trkpt lon="101.107799" lat="13.137941">
                <ele>191.920000</ele>
                <time>2012-07-28T06:58:10Z</time>
            </trkpt>
            <trkpt lon="101.107846" lat="13.137077">
                <ele>190.000000</ele>
                <time>2012-07-28T06:58:31Z</time>
            </trkpt>
            <trkpt lon="101.108927" lat="13.136685">
                <ele>187.110000</ele>
                <time>2012-07-28T06:59:04Z</time>
            </trkpt>
            <trkpt lon="101.108214" lat="13.131703">
                <ele>191.920000</ele>
                <time>2012-07-28T07:02:25Z</time>
            </trkpt>
            <trkpt lon="101.108600" lat="13.131846">
                <ele>192.400000</ele>
                <time>2012-07-28T07:06:48Z</time>
            </trkpt>
            <trkpt lon="101.109770" lat="13.131917">
                <ele>190.000000</ele>
                <time>2012-07-28T07:07:16Z</time>
            </trkpt>
            <trkpt lon="101.111609" lat="13.132580">
                <ele>177.020000</ele>
                <time>2012-07-28T07:07:51Z</time>
            </trkpt>
            <trkpt lon="101.111728" lat="13.133231">
                <ele>175.100000</ele>
                <time>2012-07-28T07:08:09Z</time>
            </trkpt>
            <trkpt lon="101.112133" lat="13.133380">
                <ele>175.580000</ele>
                <time>2012-07-28T07:08:28Z</time>
            </trkpt>
            <trkpt lon="101.114156" lat="13.133110">
                <ele>176.540000</ele>
                <time>2012-07-28T07:09:10Z</time>
            </trkpt>
            <trkpt lon="101.116232" lat="13.132268">
                <ele>182.310000</ele>
                <time>2012-07-28T07:10:01Z</time>
            </trkpt>
            <trkpt lon="101.116916" lat="13.131921">
                <ele>183.270000</ele>
                <time>2012-07-28T07:10:22Z</time>
            </trkpt>
            <trkpt lon="101.116194" lat="13.128852">
                <ele>188.080000</ele>
                <time>2012-07-28T07:12:02Z</time>
            </trkpt>
            <trkpt lon="101.115382" lat="13.127170">
                <ele>195.280000</ele>
                <time>2012-07-28T07:13:21Z</time>
            </trkpt>
            <trkpt lon="101.115179" lat="13.126744">
                <ele>195.770000</ele>
                <time>2012-07-28T07:13:37Z</time>
            </trkpt>
            <trkpt lon="101.112948" lat="13.122163">
                <ele>178.940000</ele>
                <time>2012-07-28T07:15:02Z</time>
            </trkpt>
            <trkpt lon="101.112540" lat="13.122115">
                <ele>177.020000</ele>
                <time>2012-07-28T07:15:11Z</time>
            </trkpt>
            <trkpt lon="101.112494" lat="13.120881">
                <ele>178.460000</ele>
                <time>2012-07-28T07:15:48Z</time>
            </trkpt>
            <trkpt lon="101.112412" lat="13.120769">
                <ele>177.020000</ele>
                <time>2012-07-28T07:16:06Z</time>
            </trkpt>
            <trkpt lon="101.112476" lat="13.120715">
                <ele>177.500000</ele>
                <time>2012-07-28T07:29:10Z</time>
            </trkpt>
            <trkpt lon="101.111967" lat="13.119181">
                <ele>183.270000</ele>
                <time>2012-07-28T07:30:28Z</time>
            </trkpt>
            <trkpt lon="101.111604" lat="13.118111">
                <ele>180.380000</ele>
                <time>2012-07-28T07:30:48Z</time>
            </trkpt>
            <trkpt lon="101.111901" lat="13.117722">
                <ele>180.380000</ele>
                <time>2012-07-28T07:31:00Z</time>
            </trkpt>
            <trkpt lon="101.111496" lat="13.116149">
                <ele>176.060000</ele>
                <time>2012-07-28T07:31:45Z</time>
            </trkpt>
            <trkpt lon="101.111820" lat="13.115816">
                <ele>175.580000</ele>
                <time>2012-07-28T07:31:58Z</time>
            </trkpt>
            <trkpt lon="101.110924" lat="13.114404">
                <ele>168.370000</ele>
                <time>2012-07-28T07:32:37Z</time>
            </trkpt>
            <trkpt lon="101.110697" lat="13.114371">
                <ele>168.850000</ele>
                <time>2012-07-28T07:32:43Z</time>
            </trkpt>
            <trkpt lon="101.110102" lat="13.114663">
                <ele>169.810000</ele>
                <time>2012-07-28T07:32:59Z</time>
            </trkpt>
            <trkpt lon="101.109781" lat="13.114830">
                <ele>169.810000</ele>
                <time>2012-07-28T07:33:08Z</time>
            </trkpt>
            <trkpt lon="101.109565" lat="13.113590">
                <ele>165.480000</ele>
                <time>2012-07-28T07:33:46Z</time>
            </trkpt>
            <trkpt lon="101.108634" lat="13.112754">
                <ele>164.520000</ele>
                <time>2012-07-28T07:34:12Z</time>
            </trkpt>
            <trkpt lon="101.108017" lat="13.112347">
                <ele>162.120000</ele>
                <time>2012-07-28T07:34:34Z</time>
            </trkpt>
            <trkpt lon="101.110451" lat="13.107882">
                <ele>158.270000</ele>
                <time>2012-07-28T07:36:03Z</time>
            </trkpt>
            <trkpt lon="101.111337" lat="13.103982">
                <ele>156.830000</ele>
                <time>2012-07-28T07:37:16Z</time>
            </trkpt>
            <trkpt lon="101.111436" lat="13.102912">
                <ele>156.350000</ele>
                <time>2012-07-28T07:37:39Z</time>
            </trkpt>
            <trkpt lon="101.111582" lat="13.103108">
                <ele>157.310000</ele>
                <time>2012-07-28T07:38:11Z</time>
            </trkpt>
            <trkpt lon="101.111453" lat="13.103031">
                <ele>156.350000</ele>
                <time>2012-07-28T07:38:24Z</time>
            </trkpt>
            <trkpt lon="101.110299" lat="13.100803">
                <ele>154.430000</ele>
                <time>2012-07-28T07:58:50Z</time>
            </trkpt>
            <trkpt lon="101.110315" lat="13.100035">
                <ele>154.430000</ele>
                <time>2012-07-28T07:59:32Z</time>
            </trkpt>
            <trkpt lon="101.108597" lat="13.100034">
                <ele>158.270000</ele>
                <time>2012-07-28T08:00:32Z</time>
            </trkpt>
            <trkpt lon="101.107685" lat="13.099959">
                <ele>157.790000</ele>
                <time>2012-07-28T08:01:04Z</time>
            </trkpt>
            <trkpt lon="101.106821" lat="13.099680">
                <ele>157.310000</ele>
                <time>2012-07-28T08:01:22Z</time>
            </trkpt>
            <trkpt lon="101.105137" lat="13.099648">
                <ele>160.200000</ele>
                <time>2012-07-28T08:02:03Z</time>
            </trkpt>
            <trkpt lon="101.104450" lat="13.101450">
                <ele>161.640000</ele>
                <time>2012-07-28T08:02:46Z</time>
            </trkpt>
            <trkpt lon="101.103182" lat="13.101323">
                <ele>162.120000</ele>
                <time>2012-07-28T08:03:16Z</time>
            </trkpt>
            <trkpt lon="101.103322" lat="13.103003">
                <ele>164.040000</ele>
                <time>2012-07-28T08:03:52Z</time>
            </trkpt>
            <trkpt lon="101.103216" lat="13.103176">
                <ele>163.560000</ele>
                <time>2012-07-28T08:03:57Z</time>
            </trkpt>
            <trkpt lon="101.100454" lat="13.103447">
                <ele>166.930000</ele>
                <time>2012-07-28T08:05:04Z</time>
            </trkpt>
            <trkpt lon="101.098331" lat="13.103835">
                <ele>168.850000</ele>
                <time>2012-07-28T08:05:56Z</time>
            </trkpt>
            <trkpt lon="101.096636" lat="13.103928">
                <ele>171.730000</ele>
                <time>2012-07-28T08:06:43Z</time>
            </trkpt>
            <trkpt lon="101.096104" lat="13.101338">
                <ele>182.310000</ele>
                <time>2012-07-28T08:08:39Z</time>
            </trkpt>
            <trkpt lon="101.096051" lat="13.101037">
                <ele>181.350000</ele>
                <time>2012-07-28T08:08:49Z</time>
            </trkpt>
            <trkpt lon="101.095062" lat="13.101937">
                <ele>185.190000</ele>
                <time>2012-07-28T08:10:07Z</time>
            </trkpt>
            <trkpt lon="101.093958" lat="13.102365">
                <ele>189.040000</ele>
                <time>2012-07-28T08:11:31Z</time>
            </trkpt>
            <trkpt lon="101.093868" lat="13.102402">
                <ele>189.040000</ele>
                <time>2012-07-28T08:11:36Z</time>
            </trkpt>
            <trkpt lon="101.094937" lat="13.104362">
                <ele>176.060000</ele>
                <time>2012-07-28T08:12:11Z</time>
            </trkpt>
            <trkpt lon="101.096397" lat="13.108360">
                <ele>178.940000</ele>
                <time>2012-07-28T08:13:45Z</time>
            </trkpt>
            <trkpt lon="101.096583" lat="13.108741">
                <ele>176.540000</ele>
                <time>2012-07-28T08:13:56Z</time>
            </trkpt>
            <trkpt lon="101.096467" lat="13.108528">
                <ele>177.980000</ele>
                <time>2012-07-28T08:14:05Z</time>
            </trkpt>
            <trkpt lon="101.096289" lat="13.108548">
                <ele>178.460000</ele>
                <time>2012-07-28T08:14:11Z</time>
            </trkpt>
            <trkpt lon="101.094426" lat="13.109069">
                <ele>182.310000</ele>
                <time>2012-07-28T08:15:09Z</time>
            </trkpt>
            <trkpt lon="101.094433" lat="13.109204">
                <ele>182.310000</ele>
                <time>2012-07-28T08:15:26Z</time>
            </trkpt>
            <trkpt lon="101.094023" lat="13.107843">
                <ele>179.420000</ele>
                <time>2012-07-28T08:17:32Z</time>
            </trkpt>
            <trkpt lon="101.094062" lat="13.107546">
                <ele>178.940000</ele>
                <time>2012-07-28T08:17:52Z</time>
            </trkpt>
            <trkpt lon="101.093997" lat="13.107701">
                <ele>178.940000</ele>
                <time>2012-07-28T08:18:07Z</time>
            </trkpt>
            <trkpt lon="101.094292" lat="13.108710">
                <ele>182.310000</ele>
                <time>2012-07-28T08:19:01Z</time>
            </trkpt>
            <trkpt lon="101.094514" lat="13.109042">
                <ele>182.790000</ele>
                <time>2012-07-28T08:19:28Z</time>
            </trkpt>
            <trkpt lon="101.094982" lat="13.108955">
                <ele>180.870000</ele>
                <time>2012-07-28T08:19:49Z</time>
            </trkpt>
            <trkpt lon="101.095339" lat="13.110362">
                <ele>179.420000</ele>
                <time>2012-07-28T08:20:57Z</time>
            </trkpt>
            <trkpt lon="101.094988" lat="13.108982">
                <ele>181.350000</ele>
                <time>2012-07-28T08:22:04Z</time>
            </trkpt>
            <trkpt lon="101.094468" lat="13.109030">
                <ele>182.790000</ele>
                <time>2012-07-28T08:22:24Z</time>
            </trkpt>
            <trkpt lon="101.094185" lat="13.108410">
                <ele>182.310000</ele>
                <time>2012-07-28T08:22:44Z</time>
            </trkpt>
            <trkpt lon="101.093407" lat="13.108678">
                <ele>183.270000</ele>
                <time>2012-07-28T08:23:08Z</time>
            </trkpt>
            <trkpt lon="101.093224" lat="13.108757">
                <ele>183.270000</ele>
                <time>2012-07-28T08:23:18Z</time>
            </trkpt>
            <trkpt lon="101.093060" lat="13.108632">
                <ele>183.270000</ele>
                <time>2012-07-28T08:23:33Z</time>
            </trkpt>
            <trkpt lon="101.092922" lat="13.108234">
                <ele>181.350000</ele>
                <time>2012-07-28T08:23:54Z</time>
            </trkpt>
            <trkpt lon="101.091500" lat="13.108795">
                <ele>183.270000</ele>
                <time>2012-07-28T08:24:56Z</time>
            </trkpt>
            <trkpt lon="101.091028" lat="13.109045">
                <ele>184.230000</ele>
                <time>2012-07-28T08:25:56Z</time>
            </trkpt>
            <trkpt lon="101.091027" lat="13.109176">
                <ele>185.670000</ele>
                <time>2012-07-28T08:26:20Z</time>
            </trkpt>
            <trkpt lon="101.090972" lat="13.108939">
                <ele>183.750000</ele>
                <time>2012-07-28T08:26:53Z</time>
            </trkpt>
            <trkpt lon="101.091061" lat="13.108986">
                <ele>184.710000</ele>
                <time>2012-07-28T08:27:37Z</time>
            </trkpt>
            <trkpt lon="101.090959" lat="13.108946">
                <ele>184.710000</ele>
                <time>2012-07-28T08:29:12Z</time>
            </trkpt>
            <trkpt lon="101.090590" lat="13.109267">
                <ele>187.110000</ele>
                <time>2012-07-28T08:29:47Z</time>
            </trkpt>
            <trkpt lon="101.088526" lat="13.110489">
                <ele>195.280000</ele>
                <time>2012-07-28T08:31:51Z</time>
            </trkpt>
            <trkpt lon="101.088480" lat="13.110529">
                <ele>195.280000</ele>
                <time>2012-07-28T08:31:54Z</time>
            </trkpt>
            <trkpt lon="101.087989" lat="13.110140">
                <ele>196.730000</ele>
                <time>2012-07-28T08:32:15Z</time>
            </trkpt>
            <trkpt lon="101.087273" lat="13.110553">
                <ele>201.530000</ele>
                <time>2012-07-28T08:32:51Z</time>
            </trkpt>
            <trkpt lon="101.087188" lat="13.110564">
                <ele>201.530000</ele>
                <time>2012-07-28T08:32:55Z</time>
            </trkpt>
            <trkpt lon="101.087309" lat="13.111631">
                <ele>205.860000</ele>
                <time>2012-07-28T08:33:36Z</time>
            </trkpt>
            <trkpt lon="101.086644" lat="13.112231">
                <ele>214.030000</ele>
                <time>2012-07-28T08:34:26Z</time>
            </trkpt>
            <trkpt lon="101.086422" lat="13.111852">
                <ele>215.470000</ele>
                <time>2012-07-28T08:34:48Z</time>
            </trkpt>
            <trkpt lon="101.086058" lat="13.111574">
                <ele>219.800000</ele>
                <time>2012-07-28T08:35:13Z</time>
            </trkpt>
            <trkpt lon="101.085336" lat="13.111100">
                <ele>221.240000</ele>
                <time>2012-07-28T08:35:54Z</time>
            </trkpt>
            <trkpt lon="101.084019" lat="13.109761">
                <ele>237.100000</ele>
                <time>2012-07-28T08:38:11Z</time>
            </trkpt>
            <trkpt lon="101.083803" lat="13.109467">
                <ele>233.260000</ele>
                <time>2012-07-28T08:38:27Z</time>
            </trkpt>
            <trkpt lon="101.081488" lat="13.108058">
                <ele>220.760000</ele>
                <time>2012-07-28T08:40:03Z</time>
            </trkpt>
            <trkpt lon="101.080916" lat="13.107344">
                <ele>216.910000</ele>
                <time>2012-07-28T08:40:27Z</time>
            </trkpt>
            <trkpt lon="101.080558" lat="13.106665">
                <ele>211.630000</ele>
                <time>2012-07-28T08:40:57Z</time>
            </trkpt>
            <trkpt lon="101.079940" lat="13.106134">
                <ele>215.470000</ele>
                <time>2012-07-28T08:41:38Z</time>
            </trkpt>
            <trkpt lon="101.079371" lat="13.105194">
                <ele>213.070000</ele>
                <time>2012-07-28T08:42:13Z</time>
            </trkpt>
            <trkpt lon="101.078251" lat="13.105778">
                <ele>215.950000</ele>
                <time>2012-07-28T08:42:52Z</time>
            </trkpt>
            <trkpt lon="101.078676" lat="13.107324">
                <ele>231.330000</ele>
                <time>2012-07-28T08:44:28Z</time>
            </trkpt>
            <trkpt lon="101.079052" lat="13.108222">
                <ele>232.780000</ele>
                <time>2012-07-28T08:45:00Z</time>
            </trkpt>
            <trkpt lon="101.078986" lat="13.108340">
                <ele>232.780000</ele>
                <time>2012-07-28T08:45:06Z</time>
            </trkpt>
            <trkpt lon="101.077127" lat="13.108724">
                <ele>233.740000</ele>
                <time>2012-07-28T08:46:26Z</time>
            </trkpt>
            <trkpt lon="101.076884" lat="13.108713">
                <ele>233.740000</ele>
                <time>2012-07-28T08:46:39Z</time>
            </trkpt>
            <trkpt lon="101.076732" lat="13.108466">
                <ele>238.060000</ele>
                <time>2012-07-28T08:47:00Z</time>
            </trkpt>
            <trkpt lon="101.076633" lat="13.108354">
                <ele>239.020000</ele>
                <time>2012-07-28T08:47:11Z</time>
            </trkpt>
            <trkpt lon="101.076154" lat="13.108627">
                <ele>242.870000</ele>
                <time>2012-07-28T08:47:44Z</time>
            </trkpt>
            <trkpt lon="101.076210" lat="13.108808">
                <ele>242.870000</ele>
                <time>2012-07-28T08:47:58Z</time>
            </trkpt>
            <trkpt lon="101.076350" lat="13.109002">
                <ele>242.390000</ele>
                <time>2012-07-28T08:48:53Z</time>
            </trkpt>
            <trkpt lon="101.076138" lat="13.108766">
                <ele>242.390000</ele>
                <time>2012-07-28T08:49:23Z</time>
            </trkpt>
            <trkpt lon="101.076083" lat="13.108850">
                <ele>240.950000</ele>
                <time>2012-07-28T08:49:58Z</time>
            </trkpt>
            <trkpt lon="101.076226" lat="13.108840">
                <ele>242.390000</ele>
                <time>2012-07-28T08:50:42Z</time>
            </trkpt>
            <trkpt lon="101.076405" lat="13.109092">
                <ele>242.390000</ele>
                <time>2012-07-28T09:04:09Z</time>
            </trkpt>
            <trkpt lon="101.076570" lat="13.109074">
                <ele>241.430000</ele>
                <time>2012-07-28T09:04:26Z</time>
            </trkpt>
            <trkpt lon="101.077082" lat="13.109552">
                <ele>243.830000</ele>
                <time>2012-07-28T09:05:03Z</time>
            </trkpt>
            <trkpt lon="101.077363" lat="13.109540">
                <ele>246.720000</ele>
                <time>2012-07-28T09:05:22Z</time>
            </trkpt>
            <trkpt lon="101.078208" lat="13.110054">
                <ele>245.750000</ele>
                <time>2012-07-28T09:06:09Z</time>
            </trkpt>
            <trkpt lon="101.078602" lat="13.110134">
                <ele>247.680000</ele>
                <time>2012-07-28T09:06:29Z</time>
            </trkpt>
            <trkpt lon="101.078861" lat="13.110723">
                <ele>251.040000</ele>
                <time>2012-07-28T09:07:05Z</time>
            </trkpt>
            <trkpt lon="101.079226" lat="13.111013">
                <ele>248.160000</ele>
                <time>2012-07-28T09:07:22Z</time>
            </trkpt>
            <trkpt lon="101.079791" lat="13.111235">
                <ele>240.950000</ele>
                <time>2012-07-28T09:07:49Z</time>
            </trkpt>
            <trkpt lon="101.079281" lat="13.111754">
                <ele>236.140000</ele>
                <time>2012-07-28T09:08:17Z</time>
            </trkpt>
            <trkpt lon="101.078761" lat="13.112644">
                <ele>220.280000</ele>
                <time>2012-07-28T09:09:29Z</time>
            </trkpt>
            <trkpt lon="101.078551" lat="13.112861">
                <ele>214.990000</ele>
                <time>2012-07-28T09:09:41Z</time>
            </trkpt>
            <trkpt lon="101.078821" lat="13.113441">
                <ele>208.260000</ele>
                <time>2012-07-28T09:10:06Z</time>
            </trkpt>
            <trkpt lon="101.079242" lat="13.113856">
                <ele>213.070000</ele>
                <time>2012-07-28T09:10:32Z</time>
            </trkpt>
            <trkpt lon="101.079781" lat="13.113799">
                <ele>213.550000</ele>
                <time>2012-07-28T09:10:56Z</time>
            </trkpt>
            <trkpt lon="101.080486" lat="13.114010">
                <ele>204.420000</ele>
                <time>2012-07-28T09:11:18Z</time>
            </trkpt>
            <trkpt lon="101.080764" lat="13.113939">
                <ele>203.940000</ele>
                <time>2012-07-28T09:11:25Z</time>
            </trkpt>
            <trkpt lon="101.081244" lat="13.113722">
                <ele>197.210000</ele>
                <time>2012-07-28T09:11:41Z</time>
            </trkpt>
            <trkpt lon="101.081770" lat="13.114047">
                <ele>194.800000</ele>
                <time>2012-07-28T09:11:53Z</time>
            </trkpt>
            <trkpt lon="101.081787" lat="13.114088">
                <ele>194.320000</ele>
                <time>2012-07-28T09:11:54Z</time>
            </trkpt>
            <trkpt lon="101.081713" lat="13.115957">
                <ele>189.040000</ele>
                <time>2012-07-28T09:12:29Z</time>
            </trkpt>
            <trkpt lon="101.081813" lat="13.116677">
                <ele>182.310000</ele>
                <time>2012-07-28T09:12:41Z</time>
            </trkpt>
            <trkpt lon="101.081345" lat="13.117482">
                <ele>173.660000</ele>
                <time>2012-07-28T09:13:01Z</time>
            </trkpt>
            <trkpt lon="101.081790" lat="13.118783">
                <ele>168.370000</ele>
                <time>2012-07-28T09:13:21Z</time>
            </trkpt>
            <trkpt lon="101.081338" lat="13.119911">
                <ele>163.560000</ele>
                <time>2012-07-28T09:13:36Z</time>
            </trkpt>
            <trkpt lon="101.080176" lat="13.120732">
                <ele>157.790000</ele>
                <time>2012-07-28T09:14:16Z</time>
            </trkpt>
            <trkpt lon="101.080763" lat="13.120372">
                <ele>162.600000</ele>
                <time>2012-07-28T09:15:16Z</time>
            </trkpt>
            <trkpt lon="101.080186" lat="13.120757">
                <ele>157.310000</ele>
                <time>2012-07-28T09:15:31Z</time>
            </trkpt>
            <trkpt lon="101.079199" lat="13.121954">
                <ele>148.180000</ele>
                <time>2012-07-28T09:15:51Z</time>
            </trkpt>
            <trkpt lon="101.078333" lat="13.122614">
                <ele>152.510000</ele>
                <time>2012-07-28T09:16:18Z</time>
            </trkpt>
            <trkpt lon="101.078113" lat="13.123004">
                <ele>152.030000</ele>
                <time>2012-07-28T09:16:29Z</time>
            </trkpt>
            <trkpt lon="101.078030" lat="13.123246">
                <ele>150.580000</ele>
                <time>2012-07-28T09:16:34Z</time>
            </trkpt>
            <trkpt lon="101.078227" lat="13.123627">
                <ele>151.060000</ele>
                <time>2012-07-28T09:16:46Z</time>
            </trkpt>
            <trkpt lon="101.078487" lat="13.123698">
                <ele>152.030000</ele>
                <time>2012-07-28T09:16:57Z</time>
            </trkpt>
            <trkpt lon="101.081130" lat="13.123626">
                <ele>166.930000</ele>
                <time>2012-07-28T09:19:14Z</time>
            </trkpt>
            <trkpt lon="101.082218" lat="13.123190">
                <ele>169.810000</ele>
                <time>2012-07-28T09:19:57Z</time>
            </trkpt>
            <trkpt lon="101.082463" lat="13.124749">
                <ele>161.160000</ele>
                <time>2012-07-28T09:20:33Z</time>
            </trkpt>
            <trkpt lon="101.083106" lat="13.126176">
                <ele>168.370000</ele>
                <time>2012-07-28T09:21:29Z</time>
            </trkpt>
            <trkpt lon="101.082805" lat="13.127034">
                <ele>172.210000</ele>
                <time>2012-07-28T09:22:08Z</time>
            </trkpt>
            <trkpt lon="101.082197" lat="13.127381">
                <ele>167.890000</ele>
                <time>2012-07-28T09:22:29Z</time>
            </trkpt>
            <trkpt lon="101.080944" lat="13.128439">
                <ele>166.450000</ele>
                <time>2012-07-28T09:23:20Z</time>
            </trkpt>
            <trkpt lon="101.080428" lat="13.129457">
                <ele>178.940000</ele>
                <time>2012-07-28T09:25:11Z</time>
            </trkpt>
            <trkpt lon="101.079506" lat="13.129815">
                <ele>177.500000</ele>
                <time>2012-07-28T09:25:44Z</time>
            </trkpt>
            <trkpt lon="101.079073" lat="13.130190">
                <ele>179.900000</ele>
                <time>2012-07-28T09:26:10Z</time>
            </trkpt>
            <trkpt lon="101.079066" lat="13.130544">
                <ele>175.100000</ele>
                <time>2012-07-28T09:26:24Z</time>
            </trkpt>
            <trkpt lon="101.079574" lat="13.131587">
                <ele>169.810000</ele>
                <time>2012-07-28T09:26:46Z</time>
            </trkpt>
            <trkpt lon="101.080347" lat="13.132497">
                <ele>176.060000</ele>
                <time>2012-07-28T09:27:25Z</time>
            </trkpt>
            <trkpt lon="101.081092" lat="13.134306">
                <ele>185.670000</ele>
                <time>2012-07-28T09:28:43Z</time>
            </trkpt>
            <trkpt lon="101.081465" lat="13.134815">
                <ele>188.560000</ele>
                <time>2012-07-28T09:29:08Z</time>
            </trkpt>
            <trkpt lon="101.080837" lat="13.135868">
                <ele>190.480000</ele>
                <time>2012-07-28T09:48:11Z</time>
            </trkpt>
            <trkpt lon="101.080670" lat="13.135462">
                <ele>190.480000</ele>
                <time>2012-07-28T09:48:26Z</time>
            </trkpt>
            <trkpt lon="101.080146" lat="13.134859">
                <ele>183.270000</ele>
                <time>2012-07-28T09:48:52Z</time>
            </trkpt>
            <trkpt lon="101.078610" lat="13.135252">
                <ele>191.440000</ele>
                <time>2012-07-28T09:50:03Z</time>
            </trkpt>
            <trkpt lon="101.077947" lat="13.135365">
                <ele>184.230000</ele>
                <time>2012-07-28T09:50:40Z</time>
            </trkpt>
            <trkpt lon="101.077845" lat="13.135415">
                <ele>184.710000</ele>
                <time>2012-07-28T09:50:45Z</time>
            </trkpt>
            <trkpt lon="101.077989" lat="13.136452">
                <ele>181.350000</ele>
                <time>2012-07-28T09:51:28Z</time>
            </trkpt>
            <trkpt lon="101.077384" lat="13.137598">
                <ele>181.830000</ele>
                <time>2012-07-28T09:52:26Z</time>
            </trkpt>
            <trkpt lon="101.076805" lat="13.137839">
                <ele>181.830000</ele>
                <time>2012-07-28T09:52:49Z</time>
            </trkpt>
            <trkpt lon="101.076592" lat="13.138007">
                <ele>182.310000</ele>
                <time>2012-07-28T09:53:00Z</time>
            </trkpt>
            <trkpt lon="101.076529" lat="13.138260">
                <ele>186.630000</ele>
                <time>2012-07-28T09:53:20Z</time>
            </trkpt>
            <trkpt lon="101.076249" lat="13.138194">
                <ele>188.080000</ele>
                <time>2012-07-28T09:53:38Z</time>
            </trkpt>
            <trkpt lon="101.075740" lat="13.138404">
                <ele>198.650000</ele>
                <time>2012-07-28T09:55:07Z</time>
            </trkpt>
            <trkpt lon="101.075512" lat="13.138040">
                <ele>206.820000</ele>
                <time>2012-07-28T09:56:36Z</time>
            </trkpt>
            <trkpt lon="101.075422" lat="13.138052">
                <ele>210.670000</ele>
                <time>2012-07-28T09:57:01Z</time>
            </trkpt>
            <trkpt lon="101.075295" lat="13.138042">
                <ele>212.110000</ele>
                <time>2012-07-28T09:57:15Z</time>
            </trkpt>
            <trkpt lon="101.074972" lat="13.138291">
                <ele>205.860000</ele>
                <time>2012-07-28T09:57:52Z</time>
            </trkpt>
            <trkpt lon="101.074671" lat="13.138990">
                <ele>193.360000</ele>
                <time>2012-07-28T09:58:29Z</time>
            </trkpt>
            <trkpt lon="101.074141" lat="13.139582">
                <ele>202.490000</ele>
                <time>2012-07-28T09:59:21Z</time>
            </trkpt>
            <trkpt lon="101.073943" lat="13.139807">
                <ele>202.490000</ele>
                <time>2012-07-28T09:59:39Z</time>
            </trkpt>
            <trkpt lon="101.073904" lat="13.139871">
                <ele>202.980000</ele>
                <time>2012-07-28T09:59:44Z</time>
            </trkpt>
            <trkpt lon="101.073846" lat="13.139917">
                <ele>203.940000</ele>
                <time>2012-07-28T09:59:49Z</time>
            </trkpt>
            <trkpt lon="101.073603" lat="13.139931">
                <ele>202.010000</ele>
                <time>2012-07-28T10:00:06Z</time>
            </trkpt>
            <trkpt lon="101.073254" lat="13.139813">
                <ele>192.400000</ele>
                <time>2012-07-28T10:00:32Z</time>
            </trkpt>
            <trkpt lon="101.072838" lat="13.139904">
                <ele>188.560000</ele>
                <time>2012-07-28T10:00:49Z</time>
            </trkpt>
            <trkpt lon="101.068633" lat="13.137311">
                <ele>152.030000</ele>
                <time>2012-07-28T10:04:48Z</time>
            </trkpt>
            <trkpt lon="101.068464" lat="13.136443">
                <ele>151.540000</ele>
                <time>2012-07-28T10:11:10Z</time>
            </trkpt>
            <trkpt lon="101.068616" lat="13.138956">
                <ele>152.030000</ele>
                <time>2012-07-28T10:13:06Z</time>
            </trkpt>
            <trkpt lon="101.067794" lat="13.138542">
                <ele>148.180000</ele>
                <time>2012-07-28T10:13:28Z</time>
            </trkpt>
            <trkpt lon="101.068235" lat="13.138794">
                <ele>150.100000</ele>
                <time>2012-07-28T10:13:53Z</time>
            </trkpt>
            <trkpt lon="101.068616" lat="13.139001">
                <ele>147.700000</ele>
                <time>2012-07-28T10:14:11Z</time>
            </trkpt>
            <trkpt lon="101.068618" lat="13.139026">
                <ele>151.060000</ele>
                <time>2012-07-28T10:14:12Z</time>
            </trkpt>
            <trkpt lon="101.068648" lat="13.139419">
                <ele>152.510000</ele>
                <time>2012-07-28T10:14:26Z</time>
            </trkpt>
            <trkpt lon="101.068523" lat="13.139671">
                <ele>152.030000</ele>
                <time>2012-07-28T10:14:39Z</time>
            </trkpt>
            <trkpt lon="101.063801" lat="13.138172">
                <ele>135.680000</ele>
                <time>2012-07-28T10:16:31Z</time>
            </trkpt>
            <trkpt lon="101.063082" lat="13.140041">
                <ele>133.280000</ele>
                <time>2012-07-28T10:17:18Z</time>
            </trkpt>
            <trkpt lon="101.062828" lat="13.140368">
                <ele>133.280000</ele>
                <time>2012-07-28T10:17:28Z</time>
            </trkpt>
            <trkpt lon="101.061829" lat="13.141738">
                <ele>129.430000</ele>
                <time>2012-07-28T10:18:11Z</time>
            </trkpt>
            <trkpt lon="101.061548" lat="13.141659">
                <ele>128.470000</ele>
                <time>2012-07-28T10:18:19Z</time>
            </trkpt>
            <trkpt lon="101.059787" lat="13.140290">
                <ele>124.630000</ele>
                <time>2012-07-28T10:19:04Z</time>
            </trkpt>
            <trkpt lon="101.059310" lat="13.140963">
                <ele>124.630000</ele>
                <time>2012-07-28T10:19:25Z</time>
            </trkpt>
            <trkpt lon="101.058928" lat="13.140831">
                <ele>124.150000</ele>
                <time>2012-07-28T10:19:35Z</time>
            </trkpt>
            <trkpt lon="101.058691" lat="13.140742">
                <ele>119.340000</ele>
                <time>2012-07-28T10:19:40Z</time>
            </trkpt>
            <trkpt lon="101.058381" lat="13.140637">
                <ele>117.420000</ele>
                <time>2012-07-28T10:19:47Z</time>
            </trkpt>
            <trkpt lon="101.058201" lat="13.140715">
                <ele>118.860000</ele>
                <time>2012-07-28T10:19:51Z</time>
            </trkpt>
            <trkpt lon="101.057927" lat="13.140842">
                <ele>116.940000</ele>
                <time>2012-07-28T10:19:56Z</time>
            </trkpt>
            <trkpt lon="101.057510" lat="13.140870">
                <ele>120.780000</ele>
                <time>2012-07-28T10:20:02Z</time>
            </trkpt>
            <trkpt lon="101.057058" lat="13.140834">
                <ele>121.260000</ele>
                <time>2012-07-28T10:20:09Z</time>
            </trkpt>
            <trkpt lon="101.055508" lat="13.140245">
                <ele>118.380000</ele>
                <time>2012-07-28T10:20:33Z</time>
            </trkpt>
            <trkpt lon="101.054539" lat="13.139654">
                <ele>117.900000</ele>
                <time>2012-07-28T10:20:55Z</time>
            </trkpt>
            <trkpt lon="101.053759" lat="13.139986">
                <ele>112.130000</ele>
                <time>2012-07-28T10:21:13Z</time>
            </trkpt>
            <trkpt lon="101.053539" lat="13.140199">
                <ele>112.130000</ele>
                <time>2012-07-28T10:21:19Z</time>
            </trkpt>
            <trkpt lon="101.053459" lat="13.140499">
                <ele>116.460000</ele>
                <time>2012-07-28T10:21:25Z</time>
            </trkpt>
            <trkpt lon="101.053457" lat="13.140617">
                <ele>116.940000</ele>
                <time>2012-07-28T10:21:28Z</time>
            </trkpt>
            <trkpt lon="101.053536" lat="13.140324">
                <ele>116.460000</ele>
                <time>2012-07-28T10:21:40Z</time>
            </trkpt>
            <trkpt lon="101.052776" lat="13.140102">
                <ele>113.090000</ele>
                <time>2012-07-28T10:22:02Z</time>
            </trkpt>
            <trkpt lon="101.052384" lat="13.138982">
                <ele>111.650000</ele>
                <time>2012-07-28T10:22:46Z</time>
            </trkpt>
            <trkpt lon="101.051581" lat="13.138823">
                <ele>111.650000</ele>
                <time>2012-07-28T10:23:24Z</time>
            </trkpt>
            <trkpt lon="101.051575" lat="13.138824">
                <ele>111.170000</ele>
                <time>2012-07-28T10:23:31Z</time>
            </trkpt>
            <trkpt lon="101.052337" lat="13.138968">
                <ele>110.210000</ele>
                <time>2012-07-28T10:24:04Z</time>
            </trkpt>
            <trkpt lon="101.052851" lat="13.140159">
                <ele>109.730000</ele>
                <time>2012-07-28T10:24:55Z</time>
            </trkpt>
            <trkpt lon="101.053486" lat="13.140302">
                <ele>112.610000</ele>
                <time>2012-07-28T10:25:19Z</time>
            </trkpt>
            <trkpt lon="101.053490" lat="13.140789">
                <ele>113.090000</ele>
                <time>2012-07-28T10:25:34Z</time>
            </trkpt>
            <trkpt lon="101.054055" lat="13.141855">
                <ele>114.530000</ele>
                <time>2012-07-28T10:25:59Z</time>
            </trkpt>
            <trkpt lon="101.054716" lat="13.143086">
                <ele>113.570000</ele>
                <time>2012-07-28T10:26:24Z</time>
            </trkpt>
            <trkpt lon="101.055079" lat="13.144334">
                <ele>114.050000</ele>
                <time>2012-07-28T10:26:46Z</time>
            </trkpt>
            <trkpt lon="101.055162" lat="13.144576">
                <ele>113.570000</ele>
                <time>2012-07-28T10:26:51Z</time>
            </trkpt>
            <trkpt lon="101.058449" lat="13.145929">
                <ele>119.340000</ele>
                <time>2012-07-28T10:27:52Z</time>
            </trkpt>
            <trkpt lon="101.060756" lat="13.146870">
                <ele>118.860000</ele>
                <time>2012-07-28T10:28:33Z</time>
            </trkpt>
            <trkpt lon="101.062177" lat="13.149094">
                <ele>123.670000</ele>
                <time>2012-07-28T10:29:34Z</time>
            </trkpt>
            <trkpt lon="101.063254" lat="13.151162">
                <ele>125.590000</ele>
                <time>2012-07-28T10:30:20Z</time>
            </trkpt>
            <trkpt lon="101.065031" lat="13.154568">
                <ele>120.780000</ele>
                <time>2012-07-28T10:31:16Z</time>
            </trkpt>
            <trkpt lon="101.066620" lat="13.157038">
                <ele>122.220000</ele>
                <time>2012-07-28T10:32:03Z</time>
            </trkpt>
            <trkpt lon="101.067104" lat="13.158028">
                <ele>123.190000</ele>
                <time>2012-07-28T10:32:21Z</time>
            </trkpt>
            <trkpt lon="101.067620" lat="13.158720">
                <ele>125.590000</ele>
                <time>2012-07-28T10:32:36Z</time>
            </trkpt>
            <trkpt lon="101.068850" lat="13.160102">
                <ele>122.220000</ele>
                <time>2012-07-28T10:33:08Z</time>
            </trkpt>
            <trkpt lon="101.068893" lat="13.160140">
                <ele>126.550000</ele>
                <time>2012-07-28T10:33:10Z</time>
            </trkpt>
            <trkpt lon="101.068921" lat="13.160156">
                <ele>126.550000</ele>
                <time>2012-07-28T10:33:11Z</time>
            </trkpt>
            <trkpt lon="101.069058" lat="13.160308">
                <ele>127.510000</ele>
                <time>2012-07-28T10:33:16Z</time>
            </trkpt>
            <trkpt lon="101.071633" lat="13.163017">
                <ele>130.880000</ele>
                <time>2012-07-28T10:34:23Z</time>
            </trkpt>
            <trkpt lon="101.072257" lat="13.163727">
                <ele>132.320000</ele>
                <time>2012-07-28T10:34:40Z</time>
            </trkpt>
            <trkpt lon="101.072854" lat="13.165042">
                <ele>134.240000</ele>
                <time>2012-07-28T10:35:07Z</time>
            </trkpt>
            <trkpt lon="101.072969" lat="13.165216">
                <ele>134.240000</ele>
                <time>2012-07-28T10:35:11Z</time>
            </trkpt>
            <trkpt lon="101.076608" lat="13.165181">
                <ele>135.200000</ele>
                <time>2012-07-28T10:36:11Z</time>
            </trkpt>
            <trkpt lon="101.077001" lat="13.165282">
                <ele>133.280000</ele>
                <time>2012-07-28T10:36:17Z</time>
            </trkpt>
            <trkpt lon="101.078403" lat="13.165817">
                <ele>133.280000</ele>
                <time>2012-07-28T10:36:40Z</time>
            </trkpt>
            <trkpt lon="101.081613" lat="13.168288">
                <ele>141.450000</ele>
                <time>2012-07-28T10:38:02Z</time>
            </trkpt>
            <trkpt lon="101.082482" lat="13.168853">
                <ele>142.410000</ele>
                <time>2012-07-28T10:38:23Z</time>
            </trkpt>
            <trkpt lon="101.083517" lat="13.169186">
                <ele>143.850000</ele>
                <time>2012-07-28T10:38:46Z</time>
            </trkpt>
            <trkpt lon="101.083758" lat="13.169235">
                <ele>143.850000</ele>
                <time>2012-07-28T10:38:51Z</time>
            </trkpt>
            <trkpt lon="101.084580" lat="13.169322">
                <ele>144.340000</ele>
                <time>2012-07-28T10:39:06Z</time>
            </trkpt>
            <trkpt lon="101.087359" lat="13.169005">
                <ele>151.060000</ele>
                <time>2012-07-28T10:40:05Z</time>
            </trkpt>
            <trkpt lon="101.087870" lat="13.168874">
                <ele>150.100000</ele>
                <time>2012-07-28T10:40:17Z</time>
            </trkpt>
            <trkpt lon="101.087920" lat="13.168419">
                <ele>147.700000</ele>
                <time>2012-07-28T10:40:29Z</time>
            </trkpt>
            <trkpt lon="101.087780" lat="13.168226">
                <ele>147.220000</ele>
                <time>2012-07-28T10:40:36Z</time>
            </trkpt>
            <trkpt lon="101.087575" lat="13.168251">
                <ele>145.300000</ele>
                <time>2012-07-28T10:40:43Z</time>
            </trkpt>
            <trkpt lon="101.087255" lat="13.167744">
                <ele>147.220000</ele>
                <time>2012-07-28T10:41:02Z</time>
            </trkpt>
            <trkpt lon="101.087281" lat="13.166998">
                <ele>152.990000</ele>
                <time>2012-07-28T10:41:36Z</time>
            </trkpt>
            <trkpt lon="101.087504" lat="13.166688">
                <ele>157.790000</ele>
                <time>2012-07-28T10:42:01Z</time>
            </trkpt>
            <trkpt lon="101.087541" lat="13.166495">
                <ele>159.240000</ele>
                <time>2012-07-28T10:42:13Z</time>
            </trkpt>
            <trkpt lon="101.087073" lat="13.166565">
                <ele>160.200000</ele>
                <time>2012-07-28T10:42:40Z</time>
            </trkpt>
            <trkpt lon="101.086910" lat="13.166703">
                <ele>157.790000</ele>
                <time>2012-07-28T10:42:55Z</time>
            </trkpt>
            <trkpt lon="101.086951" lat="13.166826">
                <ele>161.640000</ele>
                <time>2012-07-28T11:04:00Z</time>
            </trkpt>
        </trkseg>
    </trk>
    <trk>
        <name>Sat Shortcut</name>
        <extensions>
            <gpxx:TrackExtension xmlns:gpxx="http://www.garmin.com/xmlschemas/GpxExtensions/v3">
                <gpxx:DisplayColor>DarkRed</gpxx:DisplayColor>
            </gpxx:TrackExtension>
        </extensions>
        <trkseg>
            <trkpt lon="101.082199" lat="13.123216">
                <ele>126.069946</ele>
                <time>2012-07-28T09:22:38Z</time>
            </trkpt>
            <trkpt lon="101.082252" lat="13.123173">
                <ele>126.550659</ele>
                <time>2012-07-28T09:22:42Z</time>
            </trkpt>
            <trkpt lon="101.082642" lat="13.122995">
                <ele>126.550659</ele>
                <time>2012-07-28T09:22:55Z</time>
            </trkpt>
            <trkpt lon="101.082819" lat="13.122984">
                <ele>127.031372</ele>
                <time>2012-07-28T09:22:59Z</time>
            </trkpt>
            <trkpt lon="101.082949" lat="13.123008">
                <ele>127.031372</ele>
                <time>2012-07-28T09:23:02Z</time>
            </trkpt>
            <trkpt lon="101.083031" lat="13.123037">
                <ele>127.031372</ele>
                <time>2012-07-28T09:23:04Z</time>
            </trkpt>
            <trkpt lon="101.083669" lat="13.123537">
                <ele>127.031372</ele>
                <time>2012-07-28T09:23:23Z</time>
            </trkpt>
            <trkpt lon="101.084129" lat="13.123823">
                <ele>127.992554</ele>
                <time>2012-07-28T09:23:38Z</time>
            </trkpt>
            <trkpt lon="101.084650" lat="13.123812">
                <ele>130.395996</ele>
                <time>2012-07-28T09:23:56Z</time>
            </trkpt>
            <trkpt lon="101.085105" lat="13.123682">
                <ele>132.318603</ele>
                <time>2012-07-28T09:24:13Z</time>
            </trkpt>
            <trkpt lon="101.085693" lat="13.123549">
                <ele>132.799316</ele>
                <time>2012-07-28T09:24:31Z</time>
            </trkpt>
            <trkpt lon="101.086490" lat="13.123411">
                <ele>133.279907</ele>
                <time>2012-07-28T09:24:49Z</time>
            </trkpt>
            <trkpt lon="101.087384" lat="13.123263">
                <ele>135.683106</ele>
                <time>2012-07-28T09:25:09Z</time>
            </trkpt>
            <trkpt lon="101.087944" lat="13.123158">
                <ele>139.047852</ele>
                <time>2012-07-28T09:25:26Z</time>
            </trkpt>
            <trkpt lon="101.088618" lat="13.123035">
                <ele>142.893066</ele>
                <time>2012-07-28T09:25:46Z</time>
            </trkpt>
            <trkpt lon="101.089399" lat="13.122897">
                <ele>146.257812</ele>
                <time>2012-07-28T09:26:09Z</time>
            </trkpt>
            <trkpt lon="101.090174" lat="13.122742">
                <ele>146.257812</ele>
                <time>2012-07-28T09:26:29Z</time>
            </trkpt>
            <trkpt lon="101.090482" lat="13.122682">
                <ele>145.777100</ele>
                <time>2012-07-28T09:26:36Z</time>
            </trkpt>
            <trkpt lon="101.090671" lat="13.122819">
                <ele>145.296387</ele>
                <time>2012-07-28T09:26:42Z</time>
            </trkpt>
            <trkpt lon="101.091108" lat="13.123647">
                <ele>144.815796</ele>
                <time>2012-07-28T09:27:02Z</time>
            </trkpt>
            <trkpt lon="101.091281" lat="13.123974">
                <ele>143.854370</ele>
                <time>2012-07-28T09:27:10Z</time>
            </trkpt>
            <trkpt lon="101.091325" lat="13.124055">
                <ele>143.854370</ele>
                <time>2012-07-28T09:27:12Z</time>
            </trkpt>
            <trkpt lon="101.091432" lat="13.124270">
                <ele>143.373657</ele>
                <time>2012-07-28T09:27:17Z</time>
            </trkpt>
            <trkpt lon="101.091358" lat="13.124724">
                <ele>142.893066</ele>
                <time>2012-07-28T09:27:26Z</time>
            </trkpt>
            <trkpt lon="101.090592" lat="13.125456">
                <ele>141.931763</ele>
                <time>2012-07-28T09:27:44Z</time>
            </trkpt>
            <trkpt lon="101.089639" lat="13.126274">
                <ele>137.125244</ele>
                <time>2012-07-28T09:28:04Z</time>
            </trkpt>
            <trkpt lon="101.088587" lat="13.127188">
                <ele>137.605835</ele>
                <time>2012-07-28T09:28:26Z</time>
            </trkpt>
            <trkpt lon="101.088364" lat="13.127404">
                <ele>137.605835</ele>
                <time>2012-07-28T09:28:32Z</time>
            </trkpt>
            <trkpt lon="101.088283" lat="13.127773">
                <ele>137.605835</ele>
                <time>2012-07-28T09:28:39Z</time>
            </trkpt>
            <trkpt lon="101.088327" lat="13.128344">
                <ele>136.644653</ele>
                <time>2012-07-28T09:28:49Z</time>
            </trkpt>
            <trkpt lon="101.088118" lat="13.129442">
                <ele>136.644653</ele>
                <time>2012-07-28T09:29:08Z</time>
            </trkpt>
            <trkpt lon="101.087632" lat="13.130160">
                <ele>137.605835</ele>
                <time>2012-07-28T09:29:25Z</time>
            </trkpt>
            <trkpt lon="101.086981" lat="13.130962">
                <ele>139.047852</ele>
                <time>2012-07-28T09:29:47Z</time>
            </trkpt>
            <trkpt lon="101.086889" lat="13.131073">
                <ele>139.528442</ele>
                <time>2012-07-28T09:29:50Z</time>
            </trkpt>
            <trkpt lon="101.086817" lat="13.131192">
                <ele>139.528442</ele>
                <time>2012-07-28T09:29:53Z</time>
            </trkpt>
            <trkpt lon="101.086783" lat="13.131371">
                <ele>140.009155</ele>
                <time>2012-07-28T09:29:57Z</time>
            </trkpt>
            <trkpt lon="101.086802" lat="13.131651">
                <ele>140.970459</ele>
                <time>2012-07-28T09:30:03Z</time>
            </trkpt>
            <trkpt lon="101.086945" lat="13.132307">
                <ele>141.931763</ele>
                <time>2012-07-28T09:30:19Z</time>
            </trkpt>
            <trkpt lon="101.087104" lat="13.132945">
                <ele>143.854370</ele>
                <time>2012-07-28T09:30:37Z</time>
            </trkpt>
            <trkpt lon="101.087238" lat="13.133446">
                <ele>145.296387</ele>
                <time>2012-07-28T09:30:53Z</time>
            </trkpt>
            <trkpt lon="101.087307" lat="13.134008">
                <ele>145.777100</ele>
                <time>2012-07-28T09:31:10Z</time>
            </trkpt>
            <trkpt lon="101.087142" lat="13.134570">
                <ele>146.257812</ele>
                <time>2012-07-28T09:31:24Z</time>
            </trkpt>
            <trkpt lon="101.087031" lat="13.134830">
                <ele>146.738403</ele>
                <time>2012-07-28T09:31:29Z</time>
            </trkpt>
            <trkpt lon="101.087065" lat="13.135172">
                <ele>146.738403</ele>
                <time>2012-07-28T09:31:35Z</time>
            </trkpt>
            <trkpt lon="101.087180" lat="13.135388">
                <ele>146.257812</ele>
                <time>2012-07-28T09:31:39Z</time>
            </trkpt>
            <trkpt lon="101.087808" lat="13.136113">
                <ele>145.296387</ele>
                <time>2012-07-28T09:31:54Z</time>
            </trkpt>
            <trkpt lon="101.088190" lat="13.136532">
                <ele>145.296387</ele>
                <time>2012-07-28T09:32:04Z</time>
            </trkpt>
            <trkpt lon="101.089098" lat="13.137242">
                <ele>144.335205</ele>
                <time>2012-07-28T09:32:23Z</time>
            </trkpt>
            <trkpt lon="101.089196" lat="13.137323">
                <ele>144.335205</ele>
                <time>2012-07-28T09:32:25Z</time>
            </trkpt>
            <trkpt lon="101.089595" lat="13.138154">
                <ele>141.931763</ele>
                <time>2012-07-28T09:32:39Z</time>
            </trkpt>
            <trkpt lon="101.089639" lat="13.138510">
                <ele>141.931763</ele>
                <time>2012-07-28T09:32:44Z</time>
            </trkpt>
            <trkpt lon="101.089694" lat="13.138752">
                <ele>142.412476</ele>
                <time>2012-07-28T09:32:48Z</time>
            </trkpt>
            <trkpt lon="101.089635" lat="13.139270">
                <ele>143.373657</ele>
                <time>2012-07-28T09:32:56Z</time>
            </trkpt>
            <trkpt lon="101.089704" lat="13.139717">
                <ele>143.373657</ele>
                <time>2012-07-28T09:33:03Z</time>
            </trkpt>
            <trkpt lon="101.090302" lat="13.140511">
                <ele>139.528442</ele>
                <time>2012-07-28T09:33:18Z</time>
            </trkpt>
            <trkpt lon="101.090976" lat="13.141066">
                <ele>140.009155</ele>
                <time>2012-07-28T09:33:33Z</time>
            </trkpt>
            <trkpt lon="101.091098" lat="13.141167">
                <ele>140.009155</ele>
                <time>2012-07-28T09:33:36Z</time>
            </trkpt>
            <trkpt lon="101.091172" lat="13.141243">
                <ele>140.009155</ele>
                <time>2012-07-28T09:33:38Z</time>
            </trkpt>
            <trkpt lon="101.091673" lat="13.142058">
                <ele>141.931763</ele>
                <time>2012-07-28T09:33:57Z</time>
            </trkpt>
            <trkpt lon="101.091779" lat="13.142231">
                <ele>141.931763</ele>
                <time>2012-07-28T09:34:01Z</time>
            </trkpt>
            <trkpt lon="101.092261" lat="13.143108">
                <ele>143.854370</ele>
                <time>2012-07-28T09:34:20Z</time>
            </trkpt>
            <trkpt lon="101.092647" lat="13.143958">
                <ele>143.373657</ele>
                <time>2012-07-28T09:34:38Z</time>
            </trkpt>
            <trkpt lon="101.092950" lat="13.145139">
                <ele>145.296387</ele>
                <time>2012-07-28T09:35:00Z</time>
            </trkpt>
            <trkpt lon="101.093232" lat="13.146311">
                <ele>146.738403</ele>
                <time>2012-07-28T09:35:21Z</time>
            </trkpt>
            <trkpt lon="101.093435" lat="13.147397">
                <ele>149.141602</ele>
                <time>2012-07-28T09:35:42Z</time>
            </trkpt>
            <trkpt lon="101.093605" lat="13.148240">
                <ele>150.103027</ele>
                <time>2012-07-28T09:36:00Z</time>
            </trkpt>
            <trkpt lon="101.093656" lat="13.148528">
                <ele>150.103027</ele>
                <time>2012-07-28T09:36:06Z</time>
            </trkpt>
            <trkpt lon="101.093720" lat="13.148975">
                <ele>150.583618</ele>
                <time>2012-07-28T09:36:15Z</time>
            </trkpt>
            <trkpt lon="101.093875" lat="13.149879">
                <ele>149.622314</ele>
                <time>2012-07-28T09:36:33Z</time>
            </trkpt>
            <trkpt lon="101.094035" lat="13.150851">
                <ele>149.622314</ele>
                <time>2012-07-28T09:36:51Z</time>
            </trkpt>
            <trkpt lon="101.094217" lat="13.151851">
                <ele>147.699707</ele>
                <time>2012-07-28T09:37:08Z</time>
            </trkpt>
            <trkpt lon="101.093989" lat="13.152636">
                <ele>146.257812</ele>
                <time>2012-07-28T09:37:22Z</time>
            </trkpt>
            <trkpt lon="101.093812" lat="13.153067">
                <ele>149.141602</ele>
                <time>2012-07-28T09:37:37Z</time>
            </trkpt>
            <trkpt lon="101.093573" lat="13.153516">
                <ele>152.986939</ele>
                <time>2012-07-28T09:37:54Z</time>
            </trkpt>
            <trkpt lon="101.093261" lat="13.153999">
                <ele>157.312866</ele>
                <time>2012-07-28T09:38:16Z</time>
            </trkpt>
            <trkpt lon="101.093045" lat="13.154350">
                <ele>159.235474</ele>
                <time>2012-07-28T09:38:33Z</time>
            </trkpt>
            <trkpt lon="101.092881" lat="13.154600">
                <ele>162.119507</ele>
                <time>2012-07-28T09:38:45Z</time>
            </trkpt>
            <trkpt lon="101.092500" lat="13.154496">
                <ele>163.561523</ele>
                <time>2012-07-28T09:38:59Z</time>
            </trkpt>
            <trkpt lon="101.091937" lat="13.154288">
                <ele>163.080811</ele>
                <time>2012-07-28T09:39:13Z</time>
            </trkpt>
            <trkpt lon="101.091652" lat="13.154229">
                <ele>162.600098</ele>
                <time>2012-07-28T09:39:19Z</time>
            </trkpt>
            <trkpt lon="101.091349" lat="13.154199">
                <ele>161.638916</ele>
                <time>2012-07-28T09:39:25Z</time>
            </trkpt>
            <trkpt lon="101.091175" lat="13.154195">
                <ele>161.158203</ele>
                <time>2012-07-28T09:39:28Z</time>
            </trkpt>
            <trkpt lon="101.090823" lat="13.154326">
                <ele>159.235474</ele>
                <time>2012-07-28T09:39:34Z</time>
            </trkpt>
            <trkpt lon="101.090449" lat="13.154623">
                <ele>157.312866</ele>
                <time>2012-07-28T09:39:41Z</time>
            </trkpt>
            <trkpt lon="101.090352" lat="13.154725">
                <ele>156.832153</ele>
                <time>2012-07-28T09:39:43Z</time>
            </trkpt>
            <trkpt lon="101.089771" lat="13.155731">
                <ele>153.948364</ele>
                <time>2012-07-28T09:40:00Z</time>
            </trkpt>
            <trkpt lon="101.089142" lat="13.156218">
                <ele>152.986939</ele>
                <time>2012-07-28T09:40:10Z</time>
            </trkpt>
            <trkpt lon="101.088613" lat="13.156457">
                <ele>148.661011</ele>
                <time>2012-07-28T09:40:15Z</time>
            </trkpt>
            <trkpt lon="101.087615" lat="13.157455">
                <ele>138.086548</ele>
                <time>2012-07-28T09:40:27Z</time>
            </trkpt>
            <trkpt lon="101.087026" lat="13.158101">
                <ele>139.528442</ele>
                <time>2012-07-28T09:40:40Z</time>
            </trkpt>
            <trkpt lon="101.086435" lat="13.158872">
                <ele>133.760498</ele>
                <time>2012-07-28T09:41:01Z</time>
            </trkpt>
            <trkpt lon="101.085962" lat="13.159200">
                <ele>129.915283</ele>
                <time>2012-07-28T09:41:18Z</time>
            </trkpt>
            <trkpt lon="101.085150" lat="13.159254">
                <ele>128.954102</ele>
                <time>2012-07-28T09:41:37Z</time>
            </trkpt>
            <trkpt lon="101.084523" lat="13.159500">
                <ele>129.915283</ele>
                <time>2012-07-28T09:41:48Z</time>
            </trkpt>
            <trkpt lon="101.084278" lat="13.159935">
                <ele>129.915283</ele>
                <time>2012-07-28T09:41:55Z</time>
            </trkpt>
            <trkpt lon="101.083867" lat="13.161260">
                <ele>127.511963</ele>
                <time>2012-07-28T09:42:11Z</time>
            </trkpt>
            <trkpt lon="101.083327" lat="13.162733">
                <ele>119.821411</ele>
                <time>2012-07-28T09:42:27Z</time>
            </trkpt>
            <trkpt lon="101.082498" lat="13.163839">
                <ele>109.727661</ele>
                <time>2012-07-28T09:42:41Z</time>
            </trkpt>
            <trkpt lon="101.081754" lat="13.164742">
                <ele>107.324341</ele>
                <time>2012-07-28T09:42:55Z</time>
            </trkpt>
            <trkpt lon="101.081373" lat="13.165061">
                <ele>105.882446</ele>
                <time>2012-07-28T09:43:02Z</time>
            </trkpt>
            <trkpt lon="101.081255" lat="13.165129">
                <ele>105.882446</ele>
                <time>2012-07-28T09:43:04Z</time>
            </trkpt>
            <trkpt lon="101.080316" lat="13.165335">
                <ele>103.479004</ele>
                <time>2012-07-28T09:43:19Z</time>
            </trkpt>
            <trkpt lon="101.079118" lat="13.165652">
                <ele>100.114502</ele>
                <time>2012-07-28T09:43:38Z</time>
            </trkpt>
            <trkpt lon="101.078458" lat="13.165788">
                <ele>98.672485</ele>
                <time>2012-07-28T09:43:49Z</time>
            </trkpt>
        </trkseg>
    </trk>
</gpx>